sensor_id;sensor_type;location;lat;lon;timestamp;pressure;altitude;pressure_sealevel;temperature;humidity
76229;BME280;65021;53.174;18.160;2024-03-08T00:02:14;102032.45;;;-1.73;80.05
76229;BME280;65021;53.174;18.160;2024-03-08T00:04:41;102029.70;;;-1.74;80.30
76229;BME280;65021;53.174;18.160;2024-03-08T00:07:08;102028.20;;;-1.75;80.36
76229;BME280;65021;53.174;18.160;2024-03-08T00:09:35;102026.73;;;-1.75;80.38
76229;BME280;65021;53.174;18.160;2024-03-08T00:12:03;102023.16;;;-1.75;80.75
76229;BME280;65021;53.174;18.160;2024-03-08T00:14:30;102019.63;;;-1.77;80.50
76229;BME280;65021;53.174;18.160;2024-03-08T00:16:56;102020.11;;;-1.77;80.76
76229;BME280;65021;53.174;18.160;2024-03-08T00:19:23;102020.61;;;-1.81;80.64
76229;BME280;65021;53.174;18.160;2024-03-08T00:21:49;102017.76;;;-1.83;80.77
76229;BME280;65021;53.174;18.160;2024-03-08T00:24:16;102017.38;;;-1.84;80.97
76229;BME280;65021;53.174;18.160;2024-03-08T00:26:43;102016.41;;;-1.87;81.07
76229;BME280;65021;53.174;18.160;2024-03-08T00:29:10;102014.80;;;-1.90;80.89
76229;BME280;65021;53.174;18.160;2024-03-08T00:31:37;102016.15;;;-1.94;80.91
76229;BME280;65021;53.174;18.160;2024-03-08T00:34:03;102015.19;;;-1.96;81.02
76229;BME280;65021;53.174;18.160;2024-03-08T00:36:30;102016.10;;;-1.99;81.11
76229;BME280;65021;53.174;18.160;2024-03-08T00:38:57;102016.49;;;-2.01;81.19
76229;BME280;65021;53.174;18.160;2024-03-08T00:41:24;102013.14;;;-1.99;81.48
76229;BME280;65021;53.174;18.160;2024-03-08T00:43:52;102012.61;;;-2.01;81.47
76229;BME280;65021;53.174;18.160;2024-03-08T00:46:19;102011.75;;;-1.99;81.64
76229;BME280;65021;53.174;18.160;2024-03-08T00:48:46;102013.41;;;-2.01;81.60
76229;BME280;65021;53.174;18.160;2024-03-08T00:51:14;102013.15;;;-2.06;81.46
76229;BME280;65021;53.174;18.160;2024-03-08T00:53:42;102014.38;;;-2.08;81.53
76229;BME280;65021;53.174;18.160;2024-03-08T00:56:09;102014.42;;;-2.10;81.31
76229;BME280;65021;53.174;18.160;2024-03-08T00:58:39;102014.37;;;-2.14;81.41
76229;BME280;65021;53.174;18.160;2024-03-08T01:01:06;102014.51;;;-2.15;81.42
76229;BME280;65021;53.174;18.160;2024-03-08T01:03:33;102011.19;;;-2.16;81.41
76229;BME280;65021;53.174;18.160;2024-03-08T01:06:00;102011.00;;;-2.18;81.40
76229;BME280;65021;53.174;18.160;2024-03-08T01:08:27;102007.48;;;-2.20;81.68
76229;BME280;65021;53.174;18.160;2024-03-08T01:10:54;102005.89;;;-2.21;81.75
76229;BME280;65021;53.174;18.160;2024-03-08T01:13:21;102005.23;;;-2.20;82.08
76229;BME280;65021;53.174;18.160;2024-03-08T01:15:47;102002.50;;;-2.17;82.16
76229;BME280;65021;53.174;18.160;2024-03-08T01:18:14;102002.48;;;-2.17;82.14
76229;BME280;65021;53.174;18.160;2024-03-08T01:20:41;101997.29;;;-2.21;81.91
76229;BME280;65021;53.174;18.160;2024-03-08T01:23:07;101994.55;;;-2.27;81.75
76229;BME280;65021;53.174;18.160;2024-03-08T01:25:34;101994.58;;;-2.31;81.80
76229;BME280;65021;53.174;18.160;2024-03-08T01:28:00;101991.44;;;-2.34;81.74
76229;BME280;65021;53.174;18.160;2024-03-08T01:30:29;101989.07;;;-2.34;82.04
76229;BME280;65021;53.174;18.160;2024-03-08T01:32:55;101991.41;;;-2.34;82.15
76229;BME280;65021;53.174;18.160;2024-03-08T01:35:22;101990.46;;;-2.32;82.16
76229;BME280;65021;53.174;18.160;2024-03-08T01:37:48;101990.13;;;-2.27;82.68
76229;BME280;65021;53.174;18.160;2024-03-08T01:40:16;101987.38;;;-2.22;82.83
76229;BME280;65021;53.174;18.160;2024-03-08T01:42:43;101983.57;;;-2.21;82.65
76229;BME280;65021;53.174;18.160;2024-03-08T01:45:11;101986.12;;;-2.17;82.60
76229;BME280;65021;53.174;18.160;2024-03-08T01:47:38;101983.34;;;-2.08;82.86
76229;BME280;65021;53.174;18.160;2024-03-08T01:50:05;101981.44;;;-2.06;83.00
76229;BME280;65021;53.174;18.160;2024-03-08T01:52:34;101979.10;;;-2.10;82.60
76229;BME280;65021;53.174;18.160;2024-03-08T01:55:02;101977.14;;;-2.09;82.72
76229;BME280;65021;53.174;18.160;2024-03-08T01:57:35;101972.41;;;-2.05;83.12
76229;BME280;65021;53.174;18.160;2024-03-08T02:00:05;101970.59;;;-2.03;82.95
76229;BME280;65021;53.174;18.160;2024-03-08T02:02:32;101968.39;;;-2.03;82.95
76229;BME280;65021;53.174;18.160;2024-03-08T02:05:01;101968.61;;;-2.04;82.82
76229;BME280;65021;53.174;18.160;2024-03-08T02:07:27;101964.59;;;-2.06;82.81
76229;BME280;65021;53.174;18.160;2024-03-08T02:09:54;101964.23;;;-2.08;82.82
76229;BME280;65021;53.174;18.160;2024-03-08T02:12:21;101959.01;;;-2.06;82.88
76229;BME280;65021;53.174;18.160;2024-03-08T02:14:47;101958.46;;;-2.04;83.13
76229;BME280;65021;53.174;18.160;2024-03-08T02:17:14;101956.29;;;-2.02;83.04
76229;BME280;65021;53.174;18.160;2024-03-08T02:19:40;101955.42;;;-2.06;82.82
76229;BME280;65021;53.174;18.160;2024-03-08T02:22:08;101954.83;;;-2.08;82.86
76229;BME280;65021;53.174;18.160;2024-03-08T02:24:35;101951.42;;;-2.10;82.82
76229;BME280;65021;53.174;18.160;2024-03-08T02:27:02;101951.33;;;-2.11;82.93
76229;BME280;65021;53.174;18.160;2024-03-08T02:29:29;101949.92;;;-2.06;83.35
76229;BME280;65021;53.174;18.160;2024-03-08T02:31:57;101951.50;;;-2.07;83.23
76229;BME280;65021;53.174;18.160;2024-03-08T02:34:24;101950.77;;;-2.06;83.35
76229;BME280;65021;53.174;18.160;2024-03-08T02:36:51;101949.81;;;-2.05;83.47
76229;BME280;65021;53.174;18.160;2024-03-08T02:39:18;101946.41;;;-2.05;83.29
76229;BME280;65021;53.174;18.160;2024-03-08T02:41:46;101944.05;;;-2.09;83.13
76229;BME280;65021;53.174;18.160;2024-03-08T02:44:13;101943.45;;;-2.12;83.06
76229;BME280;65021;53.174;18.160;2024-03-08T02:46:39;101945.48;;;-2.14;83.05
76229;BME280;65021;53.174;18.160;2024-03-08T02:49:06;101941.40;;;-2.17;83.04
76229;BME280;65021;53.174;18.160;2024-03-08T02:51:34;101941.20;;;-2.21;83.12
76229;BME280;65021;53.174;18.160;2024-03-08T02:54:01;101945.84;;;-2.28;82.96
76229;BME280;65021;53.174;18.160;2024-03-08T02:56:30;101942.34;;;-2.32;83.07
76229;BME280;65021;53.174;18.160;2024-03-08T02:58:57;101942.31;;;-2.32;83.11
76229;BME280;65021;53.174;18.160;2024-03-08T03:01:23;101940.56;;;-2.35;83.19
76229;BME280;65021;53.174;18.160;2024-03-08T03:03:50;101938.38;;;-2.41;83.18
76229;BME280;65021;53.174;18.160;2024-03-08T03:06:16;101938.88;;;-2.45;83.07
76229;BME280;65021;53.174;18.160;2024-03-08T03:08:46;101941.44;;;-2.43;83.27
76229;BME280;65021;53.174;18.160;2024-03-08T03:11:13;101941.39;;;-2.39;83.63
76229;BME280;65021;53.174;18.160;2024-03-08T03:13:40;101940.94;;;-2.37;83.74
76229;BME280;65021;53.174;18.160;2024-03-08T03:16:08;101940.04;;;-2.37;83.69
76229;BME280;65021;53.174;18.160;2024-03-08T03:18:36;101940.38;;;-2.39;83.73
76229;BME280;65021;53.174;18.160;2024-03-08T03:21:03;101934.15;;;-2.41;83.72
76229;BME280;65021;53.174;18.160;2024-03-08T03:23:33;101934.65;;;-2.47;83.60
76229;BME280;65021;53.174;18.160;2024-03-08T03:26:01;101934.38;;;-2.46;83.72
76229;BME280;65021;53.174;18.160;2024-03-08T03:28:28;101934.59;;;-2.44;83.77
76229;BME280;65021;53.174;18.160;2024-03-08T03:30:55;101935.61;;;-2.48;83.66
76229;BME280;65021;53.174;18.160;2024-03-08T03:33:25;101931.63;;;-2.47;83.72
76229;BME280;65021;53.174;18.160;2024-03-08T03:35:52;101931.86;;;-2.40;84.04
76229;BME280;65021;53.174;18.160;2024-03-08T03:38:19;101933.11;;;-2.35;84.15
76229;BME280;65021;53.174;18.160;2024-03-08T03:40:49;101928.67;;;-2.32;83.95
76229;BME280;65021;53.174;18.160;2024-03-08T03:43:18;101928.91;;;-2.33;83.94
76229;BME280;65021;53.174;18.160;2024-03-08T03:45:45;101930.73;;;-2.36;83.91
76229;BME280;65021;53.174;18.160;2024-03-08T03:48:12;101929.74;;;-2.37;83.87
76229;BME280;65021;53.174;18.160;2024-03-08T03:50:38;101927.03;;;-2.34;83.90
76229;BME280;65021;53.174;18.160;2024-03-08T03:53:06;101926.70;;;-2.31;84.04
76229;BME280;65021;53.174;18.160;2024-03-08T03:55:36;101926.91;;;-2.25;84.09
76229;BME280;65021;53.174;18.160;2024-03-08T03:58:05;101924.77;;;-2.22;84.14
76229;BME280;65021;53.174;18.160;2024-03-08T04:00:32;101924.98;;;-2.19;84.15
76229;BME280;65021;53.174;18.160;2024-03-08T04:02:59;101926.95;;;-2.16;84.25
76229;BME280;65021;53.174;18.160;2024-03-08T04:05:27;101925.41;;;-2.18;84.10
76229;BME280;65021;53.174;18.160;2024-03-08T04:07:54;101927.01;;;-2.15;84.19
76229;BME280;65021;53.174;18.160;2024-03-08T04:10:21;101928.09;;;-2.10;84.31
76229;BME280;65021;53.174;18.160;2024-03-08T04:12:47;101926.31;;;-2.05;84.35
76229;BME280;65021;53.174;18.160;2024-03-08T04:15:14;101923.95;;;-2.01;84.43
76229;BME280;65021;53.174;18.160;2024-03-08T04:17:41;101923.84;;;-1.98;84.53
76229;BME280;65021;53.174;18.160;2024-03-08T04:20:08;101923.14;;;-1.96;84.50
76229;BME280;65021;53.174;18.160;2024-03-08T04:22:36;101922.16;;;-1.94;84.41
76229;BME280;65021;53.174;18.160;2024-03-08T04:25:03;101919.97;;;-1.92;84.34
76229;BME280;65021;53.174;18.160;2024-03-08T04:27:31;101920.48;;;-1.90;84.24
76229;BME280;65021;53.174;18.160;2024-03-08T04:29:59;101917.99;;;-1.89;84.23
76229;BME280;65021;53.174;18.160;2024-03-08T04:32:26;101916.48;;;-1.87;84.11
76229;BME280;65021;53.174;18.160;2024-03-08T04:34:54;101912.54;;;-1.87;84.20
76229;BME280;65021;53.174;18.160;2024-03-08T04:37:21;101914.00;;;-1.86;84.10
76229;BME280;65021;53.174;18.160;2024-03-08T04:39:48;101910.42;;;-1.86;84.35
76229;BME280;65021;53.174;18.160;2024-03-08T04:42:15;101911.05;;;-1.85;84.34
76229;BME280;65021;53.174;18.160;2024-03-08T04:44:44;101910.15;;;-1.84;84.35
76229;BME280;65021;53.174;18.160;2024-03-08T04:47:11;101906.95;;;-1.85;84.22
76229;BME280;65021;53.174;18.160;2024-03-08T04:49:38;101906.23;;;-1.84;84.35
76229;BME280;65021;53.174;18.160;2024-03-08T04:52:05;101904.90;;;-1.84;84.13
76229;BME280;65021;53.174;18.160;2024-03-08T04:54:33;101907.77;;;-1.84;84.15
76229;BME280;65021;53.174;18.160;2024-03-08T04:57:00;101905.24;;;-1.84;84.22
76229;BME280;65021;53.174;18.160;2024-03-08T04:59:27;101904.61;;;-1.85;84.30
76229;BME280;65021;53.174;18.160;2024-03-08T05:01:54;101901.11;;;-1.85;84.20
76229;BME280;65021;53.174;18.160;2024-03-08T05:04:21;101901.87;;;-1.86;84.16
76229;BME280;65021;53.174;18.160;2024-03-08T05:06:48;101901.09;;;-1.87;84.26
76229;BME280;65021;53.174;18.160;2024-03-08T05:09:15;101903.52;;;-1.88;84.23
76229;BME280;65021;53.174;18.160;2024-03-08T05:11:43;101903.73;;;-1.88;84.17
76229;BME280;65021;53.174;18.160;2024-03-08T05:14:11;101902.81;;;-1.89;84.09
76229;BME280;65021;53.174;18.160;2024-03-08T05:16:43;101901.70;;;-1.90;84.10
76229;BME280;65021;53.174;18.160;2024-03-08T05:19:10;101903.96;;;-1.91;84.20
76229;BME280;65021;53.174;18.160;2024-03-08T05:21:36;101906.44;;;-1.92;84.12
76229;BME280;65021;53.174;18.160;2024-03-08T05:24:04;101902.63;;;-1.93;84.00
76229;BME280;65021;53.174;18.160;2024-03-08T05:26:31;101900.34;;;-1.94;83.99
76229;BME280;65021;53.174;18.160;2024-03-08T05:28:59;101901.49;;;-1.95;84.01
76229;BME280;65021;53.174;18.160;2024-03-08T05:31:26;101901.27;;;-1.97;84.21
76229;BME280;65021;53.174;18.160;2024-03-08T05:33:54;101903.23;;;-1.96;84.14
76229;BME280;65021;53.174;18.160;2024-03-08T05:36:22;101899.38;;;-1.94;84.00
76229;BME280;65021;53.174;18.160;2024-03-08T05:38:48;101897.04;;;-1.95;84.05
76229;BME280;65021;53.174;18.160;2024-03-08T05:41:16;101897.14;;;-1.94;83.81
76229;BME280;65021;53.174;18.160;2024-03-08T05:43:44;101899.24;;;-1.93;83.99
76229;BME280;65021;53.174;18.160;2024-03-08T05:46:15;101899.05;;;-1.92;83.93
76229;BME280;65021;53.174;18.160;2024-03-08T05:48:42;101904.71;;;-1.94;83.82
76229;BME280;65021;53.174;18.160;2024-03-08T05:51:09;101904.17;;;-1.93;83.80
76229;BME280;65021;53.174;18.160;2024-03-08T05:53:36;101904.59;;;-1.92;83.81
76229;BME280;65021;53.174;18.160;2024-03-08T05:56:03;101905.14;;;-1.91;83.75
76229;BME280;65021;53.174;18.160;2024-03-08T05:58:29;101904.56;;;-1.90;83.68
76229;BME280;65021;53.174;18.160;2024-03-08T06:00:59;101903.07;;;-1.88;83.61
76229;BME280;65021;53.174;18.160;2024-03-08T06:03:25;101903.30;;;-1.87;83.59
76229;BME280;65021;53.174;18.160;2024-03-08T06:05:52;101902.00;;;-1.88;83.65
76229;BME280;65021;53.174;18.160;2024-03-08T06:08:19;101900.64;;;-1.86;83.65
76229;BME280;65021;53.174;18.160;2024-03-08T06:10:46;101902.24;;;-1.81;83.59
76229;BME280;65021;53.174;18.160;2024-03-08T06:13:15;101907.12;;;-1.75;83.58
76229;BME280;65021;53.174;18.160;2024-03-08T06:15:41;101906.52;;;-1.70;83.55
76229;BME280;65021;53.174;18.160;2024-03-08T06:18:09;101905.04;;;-1.69;83.78
76229;BME280;65021;53.174;18.160;2024-03-08T06:20:38;101906.08;;;-1.69;83.61
76229;BME280;65021;53.174;18.160;2024-03-08T06:23:05;101907.52;;;-1.68;83.62
76229;BME280;65021;53.174;18.160;2024-03-08T06:25:32;101908.95;;;-1.65;83.66
76229;BME280;65021;53.174;18.160;2024-03-08T06:27:58;101909.48;;;-1.61;83.61
76229;BME280;65021;53.174;18.160;2024-03-08T06:30:25;101911.27;;;-1.59;83.47
76229;BME280;65021;53.174;18.160;2024-03-08T06:32:51;101910.63;;;-1.57;83.67
76229;BME280;65021;53.174;18.160;2024-03-08T06:35:18;101907.80;;;-1.58;83.63
76229;BME280;65021;53.174;18.160;2024-03-08T06:37:46;101908.13;;;-1.56;83.46
76229;BME280;65021;53.174;18.160;2024-03-08T06:40:14;101910.59;;;-1.51;83.52
76229;BME280;65021;53.174;18.160;2024-03-08T06:42:41;101911.26;;;-1.47;83.55
76229;BME280;65021;53.174;18.160;2024-03-08T06:45:09;101910.69;;;-1.43;83.54
76229;BME280;65021;53.174;18.160;2024-03-08T06:47:36;101908.34;;;-1.36;83.54
76229;BME280;65021;53.174;18.160;2024-03-08T06:50:03;101909.67;;;-1.26;83.35
76229;BME280;65021;53.174;18.160;2024-03-08T06:52:30;101911.24;;;-1.12;83.32
76229;BME280;65021;53.174;18.160;2024-03-08T06:54:57;101914.51;;;-1.01;83.28
76229;BME280;65021;53.174;18.160;2024-03-08T06:57:24;101911.98;;;-0.99;83.04
76229;BME280;65021;53.174;18.160;2024-03-08T06:59:50;101910.33;;;-0.98;82.97
76229;BME280;65021;53.174;18.160;2024-03-08T07:02:18;101912.73;;;-0.95;82.83
76229;BME280;65021;53.174;18.160;2024-03-08T07:04:45;101910.42;;;-0.91;82.86
76229;BME280;65021;53.174;18.160;2024-03-08T07:07:12;101915.48;;;-0.84;82.72
76229;BME280;65021;53.174;18.160;2024-03-08T07:09:38;101911.79;;;-0.75;82.59
76229;BME280;65021;53.174;18.160;2024-03-08T07:12:05;101913.13;;;-0.59;82.43
76229;BME280;65021;53.174;18.160;2024-03-08T07:14:33;101909.29;;;-0.41;82.36
76229;BME280;65021;53.174;18.160;2024-03-08T07:17:00;101913.45;;;-0.33;82.02
76229;BME280;65021;53.174;18.160;2024-03-08T07:19:27;101913.67;;;-0.21;81.73
76229;BME280;65021;53.174;18.160;2024-03-08T07:21:54;101910.52;;;-0.11;81.46
76229;BME280;65021;53.174;18.160;2024-03-08T07:24:21;101908.65;;;-0.04;81.16
76229;BME280;65021;53.174;18.160;2024-03-08T07:27:04;101910.17;;;0.01;81.21
76229;BME280;65021;53.174;18.160;2024-03-08T07:29:32;101907.70;;;0.09;81.25
76229;BME280;65021;53.174;18.160;2024-03-08T07:32:00;101907.98;;;0.11;80.69
76229;BME280;65021;53.174;18.160;2024-03-08T07:34:27;101909.17;;;0.16;80.85
76229;BME280;65021;53.174;18.160;2024-03-08T07:36:54;101906.75;;;0.22;80.64
76229;BME280;65021;53.174;18.160;2024-03-08T07:39:23;101906.18;;;0.26;80.66
76229;BME280;65021;53.174;18.160;2024-03-08T07:41:50;101905.11;;;0.30;80.37
76229;BME280;65021;53.174;18.160;2024-03-08T07:44:19;101902.41;;;0.35;80.60
76229;BME280;65021;53.174;18.160;2024-03-08T07:46:45;101902.91;;;0.44;80.47
76229;BME280;65021;53.174;18.160;2024-03-08T07:49:12;101900.25;;;0.46;80.39
76229;BME280;65021;53.174;18.160;2024-03-08T07:51:38;101900.42;;;0.40;80.22
76229;BME280;65021;53.174;18.160;2024-03-08T07:54:05;101897.67;;;0.46;80.46
76229;BME280;65021;53.174;18.160;2024-03-08T07:56:34;101898.30;;;0.52;80.45
76229;BME280;65021;53.174;18.160;2024-03-08T07:59:03;101897.48;;;0.58;80.40
76229;BME280;65021;53.174;18.160;2024-03-08T08:01:33;101897.55;;;0.62;80.03
76229;BME280;65021;53.174;18.160;2024-03-08T08:04:00;101894.94;;;0.58;79.71
76229;BME280;65021;53.174;18.160;2024-03-08T08:06:29;101896.02;;;0.61;79.81
76229;BME280;65021;53.174;18.160;2024-03-08T08:08:59;101888.84;;;0.67;79.94
76229;BME280;65021;53.174;18.160;2024-03-08T08:11:27;101889.70;;;0.80;80.09
76229;BME280;65021;53.174;18.160;2024-03-08T08:13:55;101887.73;;;0.90;79.83
76229;BME280;65021;53.174;18.160;2024-03-08T08:16:25;101889.81;;;1.00;80.01
76229;BME280;65021;53.174;18.160;2024-03-08T08:18:52;101889.82;;;1.01;79.95
76229;BME280;65021;53.174;18.160;2024-03-08T08:21:19;101887.05;;;1.07;79.99
76229;BME280;65021;53.174;18.160;2024-03-08T08:23:46;101887.02;;;1.06;79.58
76229;BME280;65021;53.174;18.160;2024-03-08T08:26:12;101888.92;;;1.07;79.42
76229;BME280;65021;53.174;18.160;2024-03-08T08:28:39;101889.33;;;1.01;78.86
76229;BME280;65021;53.174;18.160;2024-03-08T08:31:07;101886.00;;;0.95;78.94
76229;BME280;65021;53.174;18.160;2024-03-08T08:33:34;101887.48;;;0.97;79.06
76229;BME280;65021;53.174;18.160;2024-03-08T08:36:02;101886.63;;;1.01;79.32
76229;BME280;65021;53.174;18.160;2024-03-08T08:38:30;101884.92;;;1.08;79.22
76229;BME280;65021;53.174;18.160;2024-03-08T08:40:56;101885.55;;;1.17;79.15
76229;BME280;65021;53.174;18.160;2024-03-08T08:43:23;101881.39;;;1.26;79.21
76229;BME280;65021;53.174;18.160;2024-03-08T08:45:51;101880.59;;;1.30;78.79
76229;BME280;65021;53.174;18.160;2024-03-08T08:48:21;101877.57;;;1.33;78.39
76229;BME280;65021;53.174;18.160;2024-03-08T08:50:47;101880.33;;;1.40;78.29
76229;BME280;65021;53.174;18.160;2024-03-08T08:53:14;101880.36;;;1.54;78.76
76229;BME280;65021;53.174;18.160;2024-03-08T08:55:41;101880.00;;;1.73;78.67
76229;BME280;65021;53.174;18.160;2024-03-08T08:58:07;101877.52;;;1.85;78.22
76229;BME280;65021;53.174;18.160;2024-03-08T09:00:34;101875.02;;;1.89;76.95
76229;BME280;65021;53.174;18.160;2024-03-08T09:03:01;101872.34;;;1.95;76.54
76229;BME280;65021;53.174;18.160;2024-03-08T09:05:28;101870.02;;;2.04;76.66
76229;BME280;65021;53.174;18.160;2024-03-08T09:07:55;101869.02;;;2.12;76.31
76229;BME280;65021;53.174;18.160;2024-03-08T09:10:22;101868.70;;;2.15;75.24
76229;BME280;65021;53.174;18.160;2024-03-08T09:12:49;101867.72;;;2.25;76.05
76229;BME280;65021;53.174;18.160;2024-03-08T09:15:15;101867.82;;;2.33;75.45
76229;BME280;65021;53.174;18.160;2024-03-08T09:17:47;101865.11;;;2.43;74.72
76229;BME280;65021;53.174;18.160;2024-03-08T09:20:14;101861.64;;;2.59;76.11
76229;BME280;65021;53.174;18.160;2024-03-08T09:22:44;101862.89;;;2.79;75.62
76229;BME280;65021;53.174;18.160;2024-03-08T09:25:12;101867.28;;;2.89;74.47
76229;BME280;65021;53.174;18.160;2024-03-08T09:27:39;101867.15;;;2.96;73.83
76229;BME280;65021;53.174;18.160;2024-03-08T09:30:06;101868.80;;;3.04;73.72
76229;BME280;65021;53.174;18.160;2024-03-08T09:32:33;101862.33;;;3.12;73.17
76229;BME280;65021;53.174;18.160;2024-03-08T09:35:00;101861.87;;;3.24;73.11
76229;BME280;65021;53.174;18.160;2024-03-08T09:37:27;101862.41;;;3.39;73.23
76229;BME280;65021;53.174;18.160;2024-03-08T09:39:54;101862.73;;;3.56;73.43
76229;BME280;65021;53.174;18.160;2024-03-08T09:42:20;101856.58;;;3.69;72.77
76229;BME280;65021;53.174;18.160;2024-03-08T09:44:47;101852.03;;;3.86;73.40
76229;BME280;65021;53.174;18.160;2024-03-08T09:47:14;101850.72;;;3.99;71.58
76229;BME280;65021;53.174;18.160;2024-03-08T09:49:42;101850.38;;;4.08;71.49
76229;BME280;65021;53.174;18.160;2024-03-08T09:52:10;101850.59;;;4.18;70.40
76229;BME280;65021;53.174;18.160;2024-03-08T09:54:38;101852.20;;;4.23;68.84
76229;BME280;65021;53.174;18.160;2024-03-08T09:57:06;101849.02;;;4.30;68.73
76229;BME280;65021;53.174;18.160;2024-03-08T09:59:35;101846.22;;;4.35;68.47
76229;BME280;65021;53.174;18.160;2024-03-08T10:02:04;101837.79;;;4.40;67.94
76229;BME280;65021;53.174;18.160;2024-03-08T10:04:31;101837.23;;;4.45;67.62
76229;BME280;65021;53.174;18.160;2024-03-08T10:07:00;101832.48;;;4.48;67.28
76229;BME280;65021;53.174;18.160;2024-03-08T10:09:28;101834.75;;;4.61;68.12
76229;BME280;65021;53.174;18.160;2024-03-08T10:11:57;101834.01;;;4.71;68.64
76229;BME280;65021;53.174;18.160;2024-03-08T10:14:26;101832.63;;;4.74;66.62
76229;BME280;65021;53.174;18.160;2024-03-08T10:16:54;101833.83;;;4.83;67.17
76229;BME280;65021;53.174;18.160;2024-03-08T10:19:20;101833.39;;;4.91;67.87
76229;BME280;65021;53.174;18.160;2024-03-08T10:21:51;101832.12;;;5.03;67.18
76229;BME280;65021;53.174;18.160;2024-03-08T10:24:23;101832.27;;;5.14;66.87
76229;BME280;65021;53.174;18.160;2024-03-08T10:26:55;101830.30;;;5.20;64.80
76229;BME280;65021;53.174;18.160;2024-03-08T10:29:24;101828.77;;;5.29;65.50
76229;BME280;65021;53.174;18.160;2024-03-08T10:31:51;101827.29;;;5.40;66.22
76229;BME280;65021;53.174;18.160;2024-03-08T10:34:18;101830.46;;;5.49;66.44
76229;BME280;65021;53.174;18.160;2024-03-08T10:36:49;101824.91;;;5.54;63.06
76229;BME280;65021;53.174;18.160;2024-03-08T10:39:22;101823.42;;;5.62;64.28
76229;BME280;65021;53.174;18.160;2024-03-08T10:41:56;101820.38;;;5.64;62.70
76229;BME280;65021;53.174;18.160;2024-03-08T10:47:18;101815.98;;;5.77;61.60
76229;BME280;65021;53.174;18.160;2024-03-08T10:49:54;101813.30;;;5.85;61.11
76229;BME280;65021;53.174;18.160;2024-03-08T10:52:20;101813.29;;;5.96;61.68
76229;BME280;65021;53.174;18.160;2024-03-08T10:54:48;101813.11;;;6.03;61.30
76229;BME280;65021;53.174;18.160;2024-03-08T10:57:18;101809.42;;;6.09;59.61
76229;BME280;65021;53.174;18.160;2024-03-08T10:59:51;101807.46;;;6.17;60.46
76229;BME280;65021;53.174;18.160;2024-03-08T11:02:19;101803.44;;;6.26;61.83
76229;BME280;65021;53.174;18.160;2024-03-08T11:04:50;101803.20;;;6.30;59.25
76229;BME280;65021;53.174;18.160;2024-03-08T11:07:17;101797.15;;;6.34;59.54
76229;BME280;65021;53.174;18.160;2024-03-08T11:09:49;101797.67;;;6.35;58.36
76229;BME280;65021;53.174;18.160;2024-03-08T11:12:29;101800.61;;;6.39;58.54
76229;BME280;65021;53.174;18.160;2024-03-08T11:14:59;101792.14;;;6.35;56.78
76229;BME280;65021;53.174;18.160;2024-03-08T11:19:56;101789.60;;;6.41;58.36
76229;BME280;65021;53.174;18.160;2024-03-08T11:22:29;101790.23;;;6.41;56.75
76229;BME280;65021;53.174;18.160;2024-03-08T11:25:05;101785.58;;;6.48;59.16
76229;BME280;65021;53.174;18.160;2024-03-08T11:27:38;101784.90;;;6.48;56.65
76229;BME280;65021;53.174;18.160;2024-03-08T11:30:07;101781.23;;;6.52;57.39
76229;BME280;65021;53.174;18.160;2024-03-08T11:32:38;101781.82;;;6.51;54.89
76229;BME280;65021;53.174;18.160;2024-03-08T11:35:18;101778.89;;;6.57;57.18
76229;BME280;65021;53.174;18.160;2024-03-08T11:37:45;101779.55;;;6.65;57.31
76229;BME280;65021;53.174;18.160;2024-03-08T11:40:12;101775.75;;;6.68;54.51
76229;BME280;65021;53.174;18.160;2024-03-08T11:42:45;101771.82;;;6.75;55.34
76229;BME280;65021;53.174;18.160;2024-03-08T11:45:15;101764.83;;;6.81;56.89
76229;BME280;65021;53.174;18.160;2024-03-08T11:47:44;101762.92;;;6.88;57.75
76229;BME280;65021;53.174;18.160;2024-03-08T11:50:13;101757.80;;;6.92;57.52
76229;BME280;65021;53.174;18.160;2024-03-08T11:52:41;101753.23;;;6.88;55.80
76229;BME280;65021;53.174;18.160;2024-03-08T11:55:09;101752.02;;;6.89;56.33
76229;BME280;65021;53.174;18.160;2024-03-08T11:57:36;101751.16;;;6.91;58.39
76229;BME280;65021;53.174;18.160;2024-03-08T12:00:03;101742.15;;;6.95;57.88
76229;BME280;65021;53.174;18.160;2024-03-08T12:02:34;101739.64;;;7.00;57.05
76229;BME280;65021;53.174;18.160;2024-03-08T12:05:09;101739.55;;;7.06;56.91
76229;BME280;65021;53.174;18.160;2024-03-08T12:07:42;101737.08;;;7.10;56.73
76229;BME280;65021;53.174;18.160;2024-03-08T12:10:19;101731.34;;;7.12;56.07
76229;BME280;65021;53.174;18.160;2024-03-08T12:12:49;101727.93;;;7.10;54.72
76229;BME280;65021;53.174;18.160;2024-03-08T12:15:21;101726.64;;;7.12;55.32
76229;BME280;65021;53.174;18.160;2024-03-08T12:17:50;101720.30;;;7.10;55.25
76229;BME280;65021;53.174;18.160;2024-03-08T12:22:49;101713.90;;;7.13;55.40
76229;BME280;65021;53.174;18.160;2024-03-08T12:25:16;101715.52;;;7.11;55.40
76229;BME280;65021;53.174;18.160;2024-03-08T12:27:43;101712.08;;;7.08;55.04
76229;BME280;65021;53.174;18.160;2024-03-08T12:30:27;101712.24;;;7.00;53.35
76229;BME280;65021;53.174;18.160;2024-03-08T12:32:59;101709.77;;;7.02;56.11
76229;BME280;65021;53.174;18.160;2024-03-08T12:35:28;101706.21;;;7.03;55.54
76229;BME280;65021;53.174;18.160;2024-03-08T12:37:59;101705.44;;;7.09;54.84
76229;BME280;65021;53.174;18.160;2024-03-08T12:40:30;101704.21;;;7.13;54.34
76229;BME280;65021;53.174;18.160;2024-03-08T12:43:01;101701.27;;;7.20;55.03
76229;BME280;65021;53.174;18.160;2024-03-08T12:45:29;101700.96;;;7.23;54.54
76229;BME280;65021;53.174;18.160;2024-03-08T12:47:56;101695.03;;;7.23;53.77
76229;BME280;65021;53.174;18.160;2024-03-08T12:50:23;101685.45;;;7.19;53.42
76229;BME280;65021;53.174;18.160;2024-03-08T12:52:51;101688.77;;;7.19;53.80
76229;BME280;65021;53.174;18.160;2024-03-08T12:55:21;101681.11;;;7.26;54.29
76229;BME280;65021;53.174;18.160;2024-03-08T12:57:47;101683.33;;;7.30;54.37